createdAt,value
2022-09-12T00:01:08.228Z,5.57
2022-09-12T00:03:35.748Z,6.65
2022-09-12T00:06:12.765Z,5.60
2022-09-12T00:08:39.788Z,6.10
2022-09-12T00:11:09.009Z,5.32
2022-09-12T00:13:41.535Z,5.43
2022-09-12T00:16:15.808Z,6.30
2022-09-12T00:18:43.828Z,6.18
2022-09-12T00:21:10.820Z,5.63
2022-09-12T00:23:37.877Z,5.45
2022-09-12T00:26:06.659Z,5.68
2022-09-12T00:28:35.348Z,5.72
2022-09-12T00:31:05.916Z,6.85
2022-09-12T00:33:33.721Z,6.03
2022-09-12T00:36:08.987Z,5.85
2022-09-12T00:38:38.562Z,6.00
2022-09-12T00:41:06.239Z,6.38
2022-09-12T00:43:40.542Z,4.90
2022-09-12T00:46:22.430Z,5.10
2022-09-12T00:48:59.682Z,6.25
2022-09-12T00:51:28.626Z,5.70
2022-09-12T00:53:57.020Z,5.47
2022-09-12T00:56:24.413Z,5.43
2022-09-12T00:58:57.986Z,5.57
2022-09-12T01:01:28.231Z,5.20
2022-09-12T01:03:57.706Z,5.40
2022-09-12T01:06:28.825Z,5.60
2022-09-12T01:08:56.839Z,6.00
2022-09-12T01:11:23.818Z,4.65
2022-09-12T01:13:51.254Z,5.55
2022-09-12T01:16:18.364Z,5.80
2022-09-12T01:18:46.017Z,5.75
2022-09-12T01:21:25.236Z,5.10
2022-09-12T01:24:21.539Z,6.18
2022-09-12T01:27:06.390Z,5.68
2022-09-12T01:29:58.333Z,6.40
2022-09-12T01:32:38.429Z,5.45
2022-09-12T01:35:31.774Z,5.53
2022-09-12T01:38:22.016Z,4.97
2022-09-12T01:40:58.679Z,4.80
2022-09-12T01:44:04.214Z,5.40
2022-09-12T01:46:49.105Z,4.78
2022-09-12T01:49:24.554Z,4.72
2022-09-12T01:52:15.483Z,4.32
2022-09-12T01:54:50.277Z,4.82
2022-09-12T01:57:39.370Z,4.68
2022-09-12T02:00:10.731Z,4.55
2022-09-12T02:03:04.350Z,4.60
2022-09-12T02:05:47.569Z,6.20
2022-09-12T02:08:18.829Z,5.07
2022-09-12T02:10:59.414Z,6.30
2022-09-12T02:13:38.484Z,5.85
2022-09-12T02:16:17.727Z,5.47
2022-09-12T02:18:50.009Z,5.90
2022-09-12T02:21:19.418Z,5.85
2022-09-12T02:23:55.548Z,5.13
2022-09-12T02:26:32.272Z,5.43
2022-09-12T02:28:59.314Z,5.03
2022-09-12T02:31:47.449Z,5.55
2022-09-12T02:34:41.777Z,5.40
2022-09-12T02:37:46.783Z,5.80
2022-09-12T02:40:14.645Z,6.05
2022-09-12T02:42:41.853Z,5.78
2022-09-12T02:45:10.322Z,5.43
2022-09-12T02:48:15.053Z,4.97
2022-09-12T02:50:42.074Z,4.93
2022-09-12T02:53:10.563Z,5.20
2022-09-12T02:55:40.103Z,5.53
2022-09-12T02:58:20.651Z,5.40
2022-09-12T03:01:14.809Z,5.18
2022-09-12T03:03:50.878Z,5.13
2022-09-12T03:06:21.523Z,4.60
2022-09-12T03:08:58.102Z,4.90
2022-09-12T03:11:29.796Z,5.07
2022-09-12T03:14:00.027Z,5.47
2022-09-12T03:16:39.333Z,5.40
2022-09-12T03:19:13.265Z,5.28
2022-09-12T03:21:50.144Z,4.18
2022-09-12T03:24:38.434Z,5.00
2022-09-12T03:27:09.217Z,4.50
2022-09-12T03:29:38.541Z,4.78
2022-09-12T03:32:05.761Z,4.47
2022-09-12T03:34:33.258Z,4.18
2022-09-12T03:37:00.264Z,3.90
2022-09-12T03:39:27.859Z,4.82
2022-09-12T03:41:55.882Z,4.68
2022-09-12T03:44:23.699Z,4.68
2022-09-12T03:46:50.779Z,5.05
2022-09-12T03:49:17.862Z,3.88
2022-09-12T03:51:44.973Z,4.13
2022-09-12T03:54:12.093Z,4.40
2022-09-12T03:56:40.988Z,3.85
2022-09-12T03:59:08.229Z,3.97
2022-09-12T04:01:35.545Z,4.63
2022-09-12T04:04:02.962Z,4.45
2022-09-12T04:06:31.089Z,3.83
2022-09-12T04:08:58.515Z,3.42
2022-09-12T04:11:25.613Z,4.03
2022-09-12T04:13:52.683Z,3.78
2022-09-12T04:16:20.134Z,3.72
2022-09-12T04:18:47.434Z,3.55
2022-09-12T04:21:17.223Z,3.42
2022-09-12T04:23:44.377Z,3.67
2022-09-12T04:26:13.588Z,3.90
2022-09-12T04:28:41.452Z,3.65
2022-09-12T04:31:12.464Z,3.40
2022-09-12T04:33:39.830Z,3.67
2022-09-12T04:36:09.941Z,3.80
2022-09-12T04:38:37.784Z,3.00
2022-09-12T04:41:17.094Z,3.28
2022-09-12T04:43:48.233Z,3.70
2022-09-12T04:46:17.362Z,3.47
2022-09-12T04:48:44.435Z,3.47
2022-09-12T04:51:21.182Z,3.50
2022-09-12T04:53:50.513Z,3.80
2022-09-12T04:56:18.674Z,3.88
2022-09-12T04:58:46.455Z,3.10
2022-09-12T05:01:16.974Z,3.08
2022-09-12T05:03:45.698Z,3.25
2022-09-12T05:06:25.067Z,3.33
2022-09-12T05:08:52.739Z,3.50
2022-09-12T05:11:26.636Z,3.05
2022-09-12T05:13:55.677Z,3.35
2022-09-12T05:16:24.216Z,3.90
2022-09-12T05:18:51.694Z,3.20
2022-09-12T05:21:22.756Z,3.70
2022-09-12T05:23:54.814Z,3.58
2022-09-12T05:26:23.051Z,3.50
2022-09-12T05:28:52.019Z,3.70
2022-09-12T05:31:27.380Z,3.60
2022-09-12T05:33:55.601Z,3.92
2022-09-12T05:36:25.865Z,3.78
2022-09-12T05:38:53.944Z,4.00
2022-09-12T05:41:27.034Z,5.18
2022-09-12T05:43:56.322Z,5.13
2022-09-12T05:46:25.983Z,4.78
2022-09-12T05:48:56.373Z,4.65
2022-09-12T05:51:28.905Z,4.72
2022-09-12T05:53:58.485Z,4.53
2022-09-12T05:56:28.443Z,3.78
2022-09-12T05:58:59.688Z,5.25
2022-09-12T06:01:27.880Z,4.10
2022-09-12T06:03:57.648Z,4.05
2022-09-12T06:06:25.292Z,4.28
2022-09-12T06:08:54.763Z,4.50
2022-09-12T06:11:25.671Z,4.07
2022-09-12T06:13:53.282Z,4.20
2022-09-12T06:16:26.031Z,4.32
2022-09-12T06:18:58.373Z,4.00
2022-09-12T06:21:26.772Z,4.68
2022-09-12T06:23:55.376Z,4.75
2022-09-12T06:26:26.122Z,4.18
2022-09-12T06:28:55.478Z,4.10
2022-09-12T06:31:31.529Z,4.40
2022-09-12T06:34:01.755Z,4.70
2022-09-12T06:36:34.424Z,4.05
2022-09-12T06:41:32.375Z,3.88
2022-09-12T06:44:00.726Z,4.25
2022-09-12T06:46:28.609Z,4.28
2022-09-12T06:48:57.490Z,3.85
2022-09-12T06:51:24.613Z,5.07
2022-09-12T06:53:54.116Z,4.60
2022-09-12T06:56:23.529Z,4.53
2022-09-12T06:58:51.502Z,4.50
2022-09-12T07:01:21.895Z,4.45
2022-09-12T07:03:55.063Z,4.00
2022-09-12T07:06:29.686Z,5.35
2022-09-12T07:08:58.676Z,4.68
2022-09-12T07:11:29.104Z,4.63
2022-09-12T07:13:57.958Z,5.07
2022-09-12T07:16:25.673Z,4.68
2022-09-12T07:18:59.231Z,5.38
2022-09-12T07:21:27.211Z,4.68
2022-09-12T07:24:03.312Z,5.75
2022-09-12T07:26:30.554Z,5.40
2022-09-12T07:29:18.624Z,5.85
2022-09-12T07:31:46.149Z,6.78
2022-09-12T07:34:13.854Z,6.00
2022-09-12T07:36:40.832Z,5.97
2022-09-12T07:39:07.846Z,5.40
2022-09-12T07:41:34.937Z,5.07
2022-09-12T07:44:03.133Z,5.22
2022-09-12T07:46:31.099Z,6.10
2022-09-12T07:49:00.037Z,5.70
2022-09-12T07:51:29.175Z,5.03
2022-09-12T07:53:56.731Z,4.68
2022-09-12T07:56:29.391Z,4.75
2022-09-12T07:58:57.205Z,4.63
2022-09-12T08:01:24.625Z,4.13
2022-09-12T08:03:59.303Z,4.80
2022-09-12T08:06:28.141Z,4.55
2022-09-12T08:08:56.851Z,4.30
2022-09-12T08:11:25.834Z,4.13
2022-09-12T08:13:55.607Z,4.80
2022-09-12T08:16:25.778Z,5.10
2022-09-12T08:18:53.112Z,4.47
2022-09-12T08:21:25.204Z,4.47
2022-09-12T08:23:57.643Z,3.58
2022-09-12T08:26:25.062Z,4.43
2022-09-12T08:28:53.091Z,5.10
2022-09-12T08:31:22.520Z,4.53
2022-09-12T08:33:50.009Z,4.28
2022-09-12T08:36:22.717Z,3.70
2022-09-12T08:38:54.399Z,4.05
2022-09-12T08:41:39.693Z,3.83
2022-09-12T08:44:20.532Z,4.68
2022-09-12T08:47:09.304Z,4.78
2022-09-12T08:49:46.360Z,4.15
2022-09-12T08:52:19.290Z,4.38
2022-09-12T08:54:46.725Z,4.15
2022-09-12T08:57:15.128Z,4.07
2022-09-12T08:59:44.784Z,4.60
2022-09-12T09:02:36.635Z,3.97
2022-09-12T09:05:23.779Z,3.90
2022-09-12T09:08:00.250Z,5.03
2022-09-12T09:10:36.444Z,4.65
2022-09-12T09:14:04.980Z,4.53
2022-09-12T09:16:39.431Z,5.35
2022-09-12T09:19:17.339Z,5.30
2022-09-12T09:22:03.142Z,4.72
2022-09-12T09:24:40.135Z,5.18
2022-09-12T09:27:39.993Z,4.43
2022-09-12T09:30:15.333Z,4.53
2022-09-12T09:32:44.839Z,4.20
2022-09-12T09:35:19.306Z,4.30
2022-09-12T09:38:01.861Z,4.25
2022-09-12T09:40:44.564Z,5.03
2022-09-12T09:43:23.851Z,4.00
2022-09-12T09:45:52.091Z,4.97
2022-09-12T09:48:31.207Z,4.60
2022-09-12T09:51:05.038Z,4.38
2022-09-12T09:53:40.010Z,4.38
2022-09-12T09:56:33.977Z,4.30
2022-09-12T09:59:13.110Z,4.38
2022-09-12T10:01:49.997Z,4.68
2022-09-12T10:04:22.739Z,4.68
2022-09-12T10:09:40.173Z,5.43
2022-09-12T10:12:29.176Z,3.72
2022-09-12T10:15:00.632Z,4.63
2022-09-12T10:17:42.036Z,4.45
2022-09-12T10:20:46.494Z,5.28
2022-09-12T10:23:19.431Z,4.07
2022-09-12T10:25:48.526Z,3.65
2022-09-12T10:28:27.017Z,4.40
2022-09-12T10:30:55.071Z,4.47
2022-09-12T10:33:25.293Z,4.18
2022-09-12T10:35:55.078Z,4.57
2022-09-12T10:38:28.933Z,4.45
2022-09-12T10:41:03.454Z,5.03
2022-09-12T10:43:33.576Z,3.65
2022-09-12T10:46:24.968Z,4.38
2022-09-12T10:49:13.372Z,5.05
2022-09-12T10:51:40.448Z,4.50
2022-09-12T10:54:11.473Z,5.05
2022-09-12T10:56:57.279Z,3.80
2022-09-12T10:59:32.139Z,3.85
2022-09-12T11:02:09.114Z,3.78
2022-09-12T11:05:08.150Z,4.18
2022-09-12T11:07:38.122Z,4.18
2022-09-12T11:10:34.272Z,3.25
2022-09-12T11:13:25.300Z,3.90
2022-09-12T11:16:23.239Z,3.80
2022-09-12T11:19:27.895Z,3.30
2022-09-12T11:22:31.941Z,3.22
2022-09-12T11:25:05.401Z,3.05
2022-09-12T11:27:54.221Z,2.85
2022-09-12T11:30:21.237Z,3.67
2022-09-12T11:32:48.265Z,3.28
2022-09-12T11:35:17.467Z,3.40
2022-09-12T11:37:56.975Z,3.20
2022-09-12T11:40:37.182Z,2.80
2022-09-12T11:43:43.211Z,2.47
2022-09-12T11:46:34.734Z,2.50
2022-09-12T11:49:13.574Z,3.10
2022-09-12T11:51:50.505Z,3.58
2022-09-12T11:54:26.085Z,2.58
2022-09-12T11:57:19.787Z,2.50
2022-09-12T11:59:57.851Z,2.55
2022-09-12T12:02:30.335Z,2.15
2022-09-12T12:08:01.983Z,2.25
2022-09-12T12:10:34.809Z,1.92
2022-09-12T12:13:11.947Z,2.20
2022-09-12T12:15:47.680Z,2.33
2022-09-12T12:18:24.341Z,2.10
2022-09-12T12:20:53.133Z,1.70
2022-09-12T12:23:22.896Z,1.83
2022-09-12T12:25:55.727Z,2.05
2022-09-12T12:28:50.703Z,2.25
2022-09-12T12:31:18.379Z,2.65
2022-09-12T12:33:45.392Z,1.77
2022-09-12T12:36:30.652Z,2.10
2022-09-12T12:38:57.661Z,1.90
2022-09-12T12:41:24.659Z,1.42
2022-09-12T12:43:54.438Z,1.77
2022-09-12T12:46:28.732Z,1.67
2022-09-12T12:49:09.479Z,2.20
2022-09-12T12:51:54.702Z,1.17
2022-09-12T12:54:47.878Z,1.65
2022-09-12T12:57:17.624Z,2.20
2022-09-12T12:59:49.567Z,1.95
2022-09-12T13:02:24.030Z,1.98
2022-09-12T13:04:52.493Z,1.50
2022-09-12T13:07:36.942Z,1.77
2022-09-12T13:10:07.154Z,1.77
2022-09-12T13:12:38.063Z,1.70
2022-09-12T13:15:48.218Z,1.60
2022-09-12T13:18:48.247Z,1.20
2022-09-12T13:21:21.489Z,1.38
2022-09-12T13:24:12.910Z,1.80
2022-09-12T13:26:46.902Z,2.15
2022-09-12T13:29:19.742Z,1.30
2022-09-12T13:31:51.004Z,1.17
2022-09-12T13:34:43.459Z,1.35
2022-09-12T13:37:34.873Z,1.08
2022-09-12T13:40:22.504Z,1.65
2022-09-12T13:43:05.340Z,1.35
2022-09-12T13:48:04.387Z,1.20
2022-09-12T13:50:39.143Z,1.58
2022-09-12T13:53:13.839Z,1.58
2022-09-12T13:55:46.115Z,1.45
2022-09-12T13:58:23.493Z,1.55
2022-09-12T14:01:15.784Z,1.20
2022-09-12T14:04:08.714Z,1.27
2022-09-12T14:06:49.637Z,1.20
2022-09-12T14:09:25.298Z,2.00
2022-09-12T14:11:52.998Z,1.48
2022-09-12T14:14:43.333Z,1.08
2022-09-12T14:17:20.741Z,1.30
2022-09-12T14:19:51.165Z,1.60
2022-09-12T14:22:18.496Z,1.33
2022-09-12T14:24:50.423Z,1.48
2022-09-12T14:27:19.602Z,1.63
2022-09-12T14:29:47.344Z,1.85
2022-09-12T14:32:24.073Z,1.58
2022-09-12T14:35:12.748Z,1.70
2022-09-12T14:37:40.066Z,1.23
2022-09-12T14:40:18.848Z,1.40
2022-09-12T14:42:49.503Z,1.45
2022-09-12T14:45:22.819Z,1.58
2022-09-12T14:47:52.800Z,1.20
2022-09-12T14:50:26.420Z,1.80
2022-09-12T14:53:05.226Z,1.45
2022-09-12T14:55:42.222Z,1.50
2022-09-12T14:58:29.563Z,2.58
2022-09-12T15:01:02.510Z,1.98
2022-09-12T15:03:35.063Z,1.65
2022-09-12T15:08:31.840Z,1.33
2022-09-12T15:10:59.655Z,1.48
2022-09-12T15:13:28.470Z,1.67
2022-09-12T15:15:58.087Z,2.03
2022-09-12T15:18:27.558Z,2.28
2022-09-12T15:21:17.633Z,1.90
2022-09-12T15:23:46.290Z,1.95
2022-09-12T15:26:22.437Z,1.95
2022-09-12T15:28:51.156Z,1.38
2022-09-12T15:31:30.190Z,2.08
2022-09-12T15:33:59.631Z,2.00
2022-09-12T15:36:28.718Z,1.60
2022-09-12T15:38:56.090Z,2.00
2022-09-12T15:41:29.478Z,1.85
2022-09-12T15:43:57.115Z,1.70
2022-09-12T15:46:24.350Z,1.77
2022-09-12T15:48:51.401Z,1.40
2022-09-12T15:51:21.503Z,1.75
2022-09-12T15:53:50.257Z,1.42
2022-09-12T15:56:19.355Z,1.90
2022-09-12T15:58:58.379Z,1.50
2022-09-12T16:01:27.024Z,1.70
2022-09-12T16:03:54.152Z,1.70
2022-09-12T16:06:22.129Z,1.33
2022-09-12T16:08:49.510Z,2.20
2022-09-12T16:11:21.225Z,2.00
2022-09-12T16:13:48.890Z,1.95
2022-09-12T16:16:15.938Z,1.38
2022-09-12T16:18:43.162Z,1.40
2022-09-12T16:21:14.937Z,1.60
2022-09-12T16:23:43.918Z,2.35
2022-09-12T16:26:11.087Z,1.80
2022-09-12T16:28:38.864Z,1.80
2022-09-12T16:31:07.331Z,1.58
2022-09-12T16:33:34.848Z,2.10
2022-09-12T16:36:07.256Z,2.00
2022-09-12T16:38:35.680Z,1.63
2022-09-12T16:41:05.338Z,1.60
2022-09-12T16:43:34.018Z,2.55
2022-09-12T16:46:13.202Z,2.00
2022-09-12T16:48:52.180Z,1.88
2022-09-12T16:51:22.506Z,1.85
2022-09-12T16:53:50.468Z,1.52
2022-09-12T16:56:17.811Z,1.70
2022-09-12T16:58:45.445Z,1.77
2022-09-12T17:01:15.556Z,1.85
2022-09-12T17:03:43.056Z,1.40
2022-09-12T17:06:18.239Z,2.05
2022-09-12T17:08:48.533Z,1.58
2022-09-12T17:11:18.661Z,1.80
2022-09-12T17:14:06.659Z,1.35
2022-09-12T17:16:39.548Z,1.15
2022-09-12T17:19:07.734Z,1.67
2022-09-12T17:21:35.284Z,1.80
2022-09-12T17:24:03.480Z,1.77
2022-09-12T17:26:30.542Z,1.50
2022-09-12T17:28:57.711Z,1.98
2022-09-12T17:31:24.795Z,1.70
2022-09-12T17:33:56.773Z,1.65
2022-09-12T17:36:24.407Z,1.63
2022-09-12T17:38:51.734Z,1.80
2022-09-12T17:41:21.448Z,1.90
2022-09-12T17:43:59.664Z,1.40
2022-09-12T17:46:37.381Z,2.10
2022-09-12T17:49:08.302Z,2.33
2022-09-12T17:51:35.818Z,2.38
2022-09-12T17:54:11.766Z,2.35
2022-09-12T17:56:39.598Z,3.15
2022-09-12T17:59:08.417Z,2.65
2022-09-12T18:01:54.342Z,3.60
2022-09-12T18:04:21.395Z,2.88
2022-09-12T18:06:50.095Z,2.95
2022-09-12T18:09:19.852Z,2.80
2022-09-12T18:11:48.324Z,2.25
2022-09-12T18:14:15.960Z,2.17
2022-09-12T18:16:43.259Z,2.22
2022-09-12T18:19:10.968Z,2.88
2022-09-12T18:21:38.566Z,2.53
2022-09-12T18:24:06.330Z,2.67
2022-09-12T18:26:33.727Z,2.50
2022-09-12T18:29:00.780Z,2.80
2022-09-12T18:31:30.114Z,2.25
2022-09-12T18:34:02.444Z,2.78
2022-09-12T18:36:30.618Z,2.83
2022-09-12T18:38:58.874Z,2.33
2022-09-12T18:41:26.438Z,3.10
2022-09-12T18:43:58.042Z,3.03
2022-09-12T18:46:26.475Z,3.35
2022-09-12T18:48:57.860Z,3.28
2022-09-12T18:51:31.180Z,3.20
2022-09-12T18:54:00.925Z,3.03
2022-09-12T18:56:34.270Z,2.70
2022-09-12T18:59:02.773Z,3.22
2022-09-12T19:01:32.002Z,3.58
2022-09-12T19:04:00.859Z,3.00
2022-09-12T19:06:30.286Z,3.53
2022-09-12T19:08:58.662Z,3.42
2022-09-12T19:11:27.261Z,2.97
2022-09-12T19:13:55.430Z,3.35
2022-09-12T19:16:27.727Z,2.90
2022-09-12T19:18:55.994Z,3.25
2022-09-12T19:21:25.582Z,3.15
2022-09-12T19:23:55.815Z,3.80
2022-09-12T19:26:23.481Z,3.58
2022-09-12T19:28:50.833Z,3.60
2022-09-12T19:31:20.177Z,3.70
2022-09-12T19:33:48.219Z,3.35
2022-09-12T19:36:41.324Z,3.25
2022-09-12T19:39:07.460Z,3.75
2022-09-12T19:41:34.847Z,4.18
2022-09-12T19:44:02.868Z,4.25
2022-09-12T19:46:29.883Z,4.38
2022-09-12T19:48:56.987Z,4.22
2022-09-12T19:51:24.257Z,4.50
2022-09-12T19:53:51.612Z,4.35
2022-09-12T19:56:18.686Z,4.88
2022-09-12T19:58:52.264Z,3.92
2022-09-12T20:01:28.150Z,4.00
2022-09-12T20:03:57.050Z,4.00
2022-09-12T20:06:24.592Z,3.22
2022-09-12T20:08:51.586Z,4.05
2022-09-12T20:11:21.126Z,3.67
2022-09-12T20:13:48.110Z,4.38
2022-09-12T20:16:22.922Z,3.70
2022-09-12T20:18:56.604Z,3.72
2022-09-12T20:21:30.862Z,5.00
2022-09-12T20:24:06.308Z,4.13
2022-09-12T20:26:33.741Z,3.92
2022-09-12T20:29:00.809Z,4.00
2022-09-12T20:31:28.222Z,4.30
2022-09-12T20:33:55.281Z,4.05
2022-09-12T20:36:22.529Z,3.67
2022-09-12T20:38:56.591Z,3.92
2022-09-12T20:41:25.426Z,4.00
2022-09-12T20:43:54.088Z,4.07
2022-09-12T20:46:22.626Z,4.57
2022-09-12T20:48:50.882Z,4.38
2022-09-12T20:51:19.304Z,5.35
2022-09-12T20:53:47.285Z,4.30
2022-09-12T20:56:14.961Z,3.80
2022-09-12T20:58:44.247Z,4.25
2022-09-12T21:01:13.456Z,4.03
2022-09-12T21:03:42.027Z,4.35
2022-09-12T21:06:10.634Z,3.75
2022-09-12T21:08:37.965Z,3.40
2022-09-12T21:11:06.101Z,3.28
2022-09-12T21:13:33.256Z,4.10
2022-09-12T21:16:01.899Z,3.90
2022-09-12T21:18:29.435Z,3.33
2022-09-12T21:20:56.690Z,3.58
2022-09-12T21:23:25.468Z,4.28
2022-09-12T21:25:52.959Z,3.65
2022-09-12T21:28:21.331Z,3.60
2022-09-12T21:30:49.526Z,4.13
2022-09-12T21:33:18.238Z,3.30
2022-09-12T21:35:47.259Z,3.97
2022-09-12T21:38:15.429Z,3.40
2022-09-12T21:40:42.662Z,3.83
2022-09-12T21:43:12.798Z,3.28
2022-09-12T21:45:40.254Z,3.33
2022-09-12T21:48:07.533Z,3.60
2022-09-12T21:50:35.032Z,4.05
2022-09-12T21:53:01.979Z,4.25
2022-09-12T21:55:29.143Z,3.83
2022-09-12T21:57:56.465Z,3.70
2022-09-12T22:00:23.571Z,3.65
2022-09-12T22:02:50.777Z,3.25
2022-09-12T22:05:20.275Z,3.95
2022-09-12T22:07:47.254Z,3.67
2022-09-12T22:10:15.120Z,4.00
2022-09-12T22:12:46.059Z,3.92
2022-09-12T22:15:38.757Z,3.75
2022-09-12T22:18:01.090Z,3.38
2022-09-12T22:20:28.470Z,3.83
2022-09-12T22:23:14.111Z,3.90
2022-09-12T22:25:41.208Z,3.40
2022-09-12T22:28:08.168Z,4.65
2022-09-12T22:30:35.412Z,4.03
2022-09-12T22:33:02.410Z,4.35
2022-09-12T22:35:29.457Z,4.03
2022-09-12T22:37:56.428Z,4.25
2022-09-12T22:40:23.534Z,4.35
2022-09-12T22:42:53.915Z,4.30
2022-09-12T22:45:20.960Z,4.28
2022-09-12T22:47:48.001Z,5.55
2022-09-12T22:50:15.281Z,4.90
2022-09-12T22:52:42.276Z,4.88
2022-09-12T22:55:09.841Z,4.22
2022-09-12T22:57:37.346Z,4.55
2022-09-12T23:00:07.875Z,4.57
2022-09-12T23:02:34.858Z,5.00
2022-09-12T23:05:02.562Z,4.32
2022-09-12T23:07:29.682Z,4.50
2022-09-12T23:09:56.839Z,4.30
2022-09-12T23:12:24.222Z,5.47
2022-09-12T23:14:51.203Z,4.40
2022-09-12T23:17:18.238Z,3.92
2022-09-12T23:19:45.623Z,4.28
2022-09-12T23:22:12.630Z,4.35
2022-09-12T23:24:39.636Z,3.83
2022-09-12T23:27:06.621Z,3.72
2022-09-12T23:29:35.210Z,4.65
2022-09-12T23:32:03.690Z,3.92
2022-09-12T23:34:30.897Z,3.63
2022-09-12T23:36:57.952Z,3.75
2022-09-12T23:39:24.954Z,3.40
2022-09-12T23:41:52.100Z,3.83
2022-09-12T23:44:19.073Z,3.67
2022-09-12T23:46:46.069Z,3.45
2022-09-12T23:49:13.051Z,3.70
2022-09-12T23:51:40.062Z,2.83
2022-09-12T23:54:07.058Z,3.67
2022-09-12T23:56:34.303Z,3.35
2022-09-12T23:59:01.279Z,3.20
